Time;durP1;ratioP1;P1;durP2;ratioP2;P2;SDS_P1;SDS_P2;PMS_P1;PMS_P2;Temp;Humidity;BMP_temperature;BMP_pressure;BME280_temperature;BME280_humidity;BME280_pressure;Samples;Min_cycle;Max_cycle;Signal;HPM_P1;HPM_P2
2023/08/02 00:01:25;;;;;;;5.72;1.30;;;16.10;99.90;;;;;;5057587;28;20197;-93
2023/08/02 00:03:51;;;;;;;6.35;1.27;;;16.10;99.90;;;;;;5059410;28;20231;-93
2023/08/02 00:06:16;;;;;;;5.47;1.30;;;16.00;99.90;;;;;;5040425;28;20178;-94
2023/08/02 00:08:42;;;;;;;6.40;1.48;;;16.00;99.90;;;;;;5018473;28;20325;-95
2023/08/02 00:11:16;;;;;;;3.13;1.33;;;16.00;99.90;;;;;;5016704;28;20183;-94
2023/08/02 00:13:42;;;;;;;3.55;1.30;;;16.00;99.90;;;;;;5017572;28;20213;-93
2023/08/02 00:16:08;;;;;;;6.10;1.38;;;15.90;99.90;;;;;;5018022;28;20175;-93
2023/08/02 00:18:34;;;;;;;7.57;1.88;;;15.90;99.90;;;;;;5017813;28;20172;-92
2023/08/02 00:21:00;;;;;;;4.75;1.20;;;15.90;99.90;;;;;;5015995;28;20221;-92
2023/08/02 00:23:25;;;;;;;6.25;1.52;;;15.80;99.90;;;;;;5016943;28;20602;-95
2023/08/02 00:25:51;;;;;;;8.50;1.50;;;15.80;99.90;;;;;;5016888;28;20180;-94
2023/08/02 00:28:17;;;;;;;3.28;1.20;;;15.80;99.90;;;;;;5017129;28;20209;-93
2023/08/02 00:30:47;;;;;;;4.25;1.25;;;15.80;99.90;;;;;;5016487;28;20187;-94
2023/08/02 00:33:13;;;;;;;3.60;1.60;;;15.80;99.90;;;;;;5017908;28;20168;-94
2023/08/02 00:35:46;;;;;;;3.80;1.48;;;15.80;99.90;;;;;;5016786;28;20622;-96
2023/08/02 00:38:13;;;;;;;4.75;1.60;;;15.80;99.90;;;;;;5018325;28;20572;-95
2023/08/02 00:41:04;;;;;;;10.40;1.45;;;15.80;99.90;;;;;;5017836;28;20214;-96
2023/08/02 00:43:37;;;;;;;4.80;1.27;;;15.80;99.90;;;;;;5017879;28;20227;-96
2023/08/02 00:46:02;;;;;;;5.25;1.35;;;15.70;99.90;;;;;;5017139;28;20179;-93
2023/08/02 00:48:28;;;;;;;4.82;1.40;;;15.80;99.90;;;;;;5017708;28;20226;-96
2023/08/02 00:50:57;;;;;;;2.40;1.08;;;15.70;99.90;;;;;;5018166;28;20175;-92
2023/08/02 00:53:23;;;;;;;5.72;1.63;;;15.70;99.90;;;;;;5018939;28;20171;-95
2023/08/02 00:55:49;;;;;;;3.45;1.48;;;15.70;99.90;;;;;;5019675;28;20178;-94
2023/08/02 00:58:15;;;;;;;3.15;1.10;;;15.60;99.90;;;;;;5016799;28;20187;-94
2023/08/02 01:00:43;;;;;;;3.28;1.50;;;15.60;99.90;;;;;;5016555;28;20211;-93
2023/08/02 01:03:08;;;;;;;7.85;1.52;;;15.50;99.90;;;;;;5017993;28;20214;-94
2023/08/02 01:05:40;;;;;;;8.18;1.67;;;15.50;99.90;;;;;;5016248;28;20437;-94
2023/08/02 01:08:11;;;;;;;4.55;2.20;;;15.60;99.90;;;;;;5043300;28;20225;-95
2023/08/02 01:11:04;;;;;;;5.15;1.83;;;15.60;99.90;;;;;;5040614;28;20919;-93
2023/08/02 01:13:35;;;;;;;7.00;1.70;;;15.60;99.90;;;;;;5040079;28;20182;-95
2023/08/02 01:16:03;;;;;;;4.57;1.80;;;15.70;99.90;;;;;;5040770;28;20634;-93
2023/08/02 01:18:29;;;;;;;7.70;1.88;;;15.60;99.90;;;;;;5039302;28;20188;-95
2023/08/02 01:20:58;;;;;;;7.13;1.73;;;15.70;99.90;;;;;;5039731;28;20202;-95
2023/08/02 01:23:23;;;;;;;8.57;1.85;;;15.70;99.90;;;;;;5039229;28;20265;-93
2023/08/02 01:25:51;;;;;;;6.20;1.90;;;15.80;99.90;;;;;;5039685;28;20197;-91
2023/08/02 01:28:23;;;;;;;3.40;1.90;;;15.80;99.90;;;;;;5039763;28;20174;-95
2023/08/02 01:30:50;;;;;;;6.13;1.95;;;15.80;99.90;;;;;;5039719;28;20608;-96
2023/08/02 01:33:16;;;;;;;6.78;1.80;;;15.80;99.90;;;;;;5039797;28;20241;-96
2023/08/02 01:35:42;;;;;;;5.30;2.03;;;15.80;99.90;;;;;;5038806;28;20520;-94
2023/08/02 01:38:08;;;;;;;5.95;2.00;;;15.90;99.90;;;;;;5038455;28;20186;-94
2023/08/02 01:40:36;;;;;;;8.73;2.30;;;15.90;99.90;;;;;;5038512;28;20299;-96
2023/08/02 01:43:01;;;;;;;7.70;1.65;;;15.90;99.90;;;;;;5038524;28;20209;-94
2023/08/02 01:45:27;;;;;;;6.65;2.17;;;15.90;99.90;;;;;;5039229;28;20188;-92
2023/08/02 01:47:54;;;;;;;4.82;2.17;;;15.90;99.90;;;;;;5038723;28;20178;-94
2023/08/02 01:50:38;;;;;;;7.10;2.20;;;16.00;99.90;;;;;;5038424;28;20185;-94
2023/08/02 01:53:04;;;;;;;7.85;2.10;;;16.00;99.90;;;;;;5039386;28;20174;-96
2023/08/02 01:55:29;;;;;;;7.05;2.03;;;16.00;99.90;;;;;;5038550;28;20232;-95
2023/08/02 01:57:55;;;;;;;8.32;2.28;;;16.00;99.90;;;;;;5039133;28;20173;-95
2023/08/02 02:00:35;;;;;;;4.30;1.92;;;16.00;99.90;;;;;;5038916;28;20295;-94
2023/08/02 02:03:01;;;;;;;5.82;2.03;;;16.00;99.90;;;;;;5039515;28;20215;-96
2023/08/02 02:05:27;;;;;;;5.70;1.80;;;16.00;99.90;;;;;;5039297;28;20177;-96
2023/08/02 02:07:52;;;;;;;4.65;1.70;;;16.00;99.90;;;;;;5038476;28;20236;-95
2023/08/02 02:10:32;;;;;;;4.03;1.90;;;16.00;99.90;;;;;;5039465;28;20174;-96
2023/08/02 02:12:59;;;;;;;5.45;1.67;;;16.00;99.90;;;;;;5056804;28;20166;-96
2023/08/02 02:15:24;;;;;;;4.13;2.45;;;15.90;99.90;;;;;;5022534;28;20201;-96
2023/08/02 02:17:50;;;;;;;4.65;2.00;;;15.90;99.90;;;;;;5038825;28;20623;-94
2023/08/02 02:20:16;;;;;;;7.15;2.22;;;15.90;99.90;;;;;;5038817;28;20197;-95
2023/08/02 02:22:45;;;;;;;3.95;2.00;;;15.80;99.90;;;;;;5033397;28;20198;-93
2023/08/02 02:25:11;;;;;;;8.80;2.10;;;15.80;99.90;;;;;;5009629;28;20189;-95
2023/08/02 02:27:36;;;;;;;6.13;2.10;;;15.80;99.90;;;;;;5036742;28;20174;-94
2023/08/02 02:30:03;;;;;;;6.35;2.10;;;15.70;99.90;;;;;;5033075;28;20174;-96
2023/08/02 02:32:45;;;;;;;8.75;2.38;;;15.70;99.90;;;;;;5039763;28;20174;-96
2023/08/02 02:35:15;;;;;;;6.15;2.30;;;15.70;99.90;;;;;;5039779;28;20216;-95
2023/08/02 02:37:41;;;;;;;6.68;2.08;;;15.60;99.90;;;;;;5046130;28;20655;-96
2023/08/02 02:40:08;;;;;;;5.97;2.10;;;15.60;99.90;;;;;;5077752;28;20201;-94
2023/08/02 02:42:52;;;;;;;5.05;2.15;;;15.60;99.90;;;;;;5060630;28;20187;-96
2023/08/02 02:45:17;;;;;;;5.57;2.00;;;15.60;99.90;;;;;;5077674;28;20187;-96
2023/08/02 02:47:43;;;;;;;5.40;1.95;;;15.60;99.90;;;;;;5061331;28;20173;-94
2023/08/02 02:50:09;;;;;;;7.07;2.22;;;15.60;99.90;;;;;;5058634;28;20264;-96
2023/08/02 02:52:42;;;;;;;4.15;1.95;;;15.60;99.90;;;;;;5058148;28;20169;-96
2023/08/02 02:55:09;;;;;;;7.90;2.17;;;15.60;99.90;;;;;;5058783;28;20261;-96
2023/08/02 02:57:35;;;;;;;12.55;2.70;;;15.60;99.90;;;;;;5060008;28;20222;-96
2023/08/02 03:00:01;;;;;;;9.75;2.25;;;15.60;99.90;;;;;;5060903;28;20698;-95
2023/08/02 03:02:26;;;;;;;7.43;2.10;;;15.60;99.90;;;;;;5059406;28;20192;-94
2023/08/02 03:04:52;;;;;;;8.18;2.13;;;15.70;99.90;;;;;;5059886;28;20169;-95
2023/08/02 03:07:18;;;;;;;5.53;2.15;;;15.70;99.90;;;;;;5047635;28;20673;-94
2023/08/02 03:09:43;;;;;;;6.38;2.08;;;15.70;99.90;;;;;;5020218;28;20181;-96
2023/08/02 03:12:09;;;;;;;7.05;1.98;;;15.80;99.90;;;;;;5021514;28;20175;-96
2023/08/02 03:14:35;;;;;;;4.75;2.00;;;15.70;99.90;;;;;;5019560;28;20678;-96
2023/08/02 03:17:01;;;;;;;6.18;2.45;;;15.70;99.90;;;;;;5019366;28;20201;-94
2023/08/02 03:19:26;;;;;;;4.85;2.03;;;15.70;99.90;;;;;;5020937;28;20171;-96
2023/08/02 03:21:52;;;;;;;6.47;2.10;;;15.70;99.90;;;;;;5021714;28;20219;-95
2023/08/02 03:24:18;;;;;;;5.85;2.08;;;15.70;99.90;;;;;;5019590;28;20171;-95
2023/08/02 03:26:43;;;;;;;7.28;2.47;;;15.70;99.90;;;;;;5020264;28;20187;-94
2023/08/02 03:29:10;;;;;;;7.00;2.92;;;15.70;99.90;;;;;;5020605;28;20175;-96
2023/08/02 03:31:36;;;;;;;4.53;2.28;;;15.70;99.90;;;;;;5018981;28;20180;-94
2023/08/02 03:34:05;;;;;;;6.32;2.10;;;15.70;99.90;;;;;;5019367;28;20190;-96
2023/08/02 03:36:30;;;;;;;4.50;1.92;;;15.70;99.90;;;;;;5019847;28;20187;-95
2023/08/02 03:38:56;;;;;;;5.70;2.00;;;15.70;99.90;;;;;;5019867;28;20206;-96
2023/08/02 03:41:22;;;;;;;5.43;2.17;;;15.70;99.90;;;;;;5018781;28;20239;-96
2023/08/02 03:43:47;;;;;;;8.60;2.35;;;15.70;99.90;;;;;;5020084;28;20179;-94
2023/08/02 03:46:13;;;;;;;4.95;2.08;;;15.70;99.90;;;;;;5018674;28;20644;-96
2023/08/02 03:48:39;;;;;;;3.33;1.88;;;15.70;99.90;;;;;;5018916;28;20614;-95
2023/08/02 03:51:04;;;;;;;4.88;1.83;;;15.70;99.90;;;;;;5019872;28;20205;-96
2023/08/02 03:53:33;;;;;;;3.85;1.95;;;15.60;99.90;;;;;;5019440;28;20270;-93
2023/08/02 03:55:59;;;;;;;4.30;1.80;;;15.60;99.90;;;;;;5018130;28;20182;-93
2023/08/02 03:58:26;;;;;;;5.43;2.13;;;15.60;99.90;;;;;;5019892;28;20202;-95
2023/08/02 04:00:52;;;;;;;7.13;1.88;;;15.50;99.90;;;;;;5018773;28;20301;-95
2023/08/02 04:03:17;;;;;;;5.10;2.08;;;15.50;99.90;;;;;;5018895;28;20262;-96
2023/08/02 04:05:46;;;;;;;4.47;1.90;;;15.40;99.90;;;;;;5018395;28;20218;-95
2023/08/02 04:08:12;;;;;;;4.68;2.15;;;15.40;99.90;;;;;;5017370;28;20645;-96
2023/08/02 04:10:37;;;;;;;6.43;2.30;;;15.40;99.90;;;;;;5017513;28;20211;-93
2023/08/02 04:13:04;;;;;;;4.80;2.28;;;15.40;99.90;;;;;;5020730;28;20181;-96
2023/08/02 04:15:31;;;;;;;6.53;2.05;;;15.40;99.90;;;;;;5019771;28;20290;-94
2023/08/02 04:17:57;;;;;;;4.93;2.28;;;15.30;99.90;;;;;;5003160;28;20187;-95
2023/08/02 04:20:23;;;;;;;7.07;2.28;;;15.30;99.90;;;;;;4997333;28;20261;-94
2023/08/02 04:22:49;;;;;;;5.45;1.92;;;15.30;99.90;;;;;;4999186;28;20231;-96
2023/08/02 04:25:16;;;;;;;3.88;1.90;;;15.20;99.90;;;;;;5014664;28;20243;-93
2023/08/02 04:27:42;;;;;;;6.68;2.15;;;15.20;99.90;;;;;;5000339;28;20183;-93
2023/08/02 04:30:08;;;;;;;7.32;2.15;;;15.20;99.90;;;;;;4998174;28;20176;-95
2023/08/02 04:32:35;;;;;;;6.72;2.15;;;15.20;99.90;;;;;;4998166;28;20180;-96
2023/08/02 04:35:01;;;;;;;6.22;2.30;;;15.30;99.90;;;;;;5000090;28;20172;-94
2023/08/02 04:37:28;;;;;;;7.45;2.15;;;15.20;99.90;;;;;;5001224;28;20195;-95
2023/08/02 04:39:54;;;;;;;5.57;2.20;;;15.20;99.90;;;;;;5017490;28;20257;-96
2023/08/02 04:42:25;;;;;;;4.32;2.03;;;15.30;99.90;;;;;;5016982;28;20618;-96
2023/08/02 04:44:51;;;;;;;4.88;1.98;;;15.20;99.90;;;;;;5016873;28;21029;-96
2023/08/02 04:47:18;;;;;;;4.03;2.13;;;15.20;99.90;;;;;;5017703;28;20191;-95
2023/08/02 04:49:44;;;;;;;5.63;1.95;;;15.20;99.90;;;;;;5017967;28;20209;-96
2023/08/02 04:52:10;;;;;;;5.25;2.15;;;15.30;99.90;;;;;;5017354;28;20190;-95
2023/08/02 04:54:35;;;;;;;3.97;1.77;;;15.30;99.90;;;;;;5017584;28;20163;-93
2023/08/02 04:57:01;;;;;;;3.97;1.60;;;15.30;99.90;;;;;;5018711;28;20183;-94
2023/08/02 04:59:27;;;;;;;6.35;2.00;;;15.40;99.90;;;;;;5019671;28;20171;-95
2023/08/02 05:01:52;;;;;;;5.85;2.22;;;15.40;99.90;;;;;;5019098;28;20289;-96
2023/08/02 05:04:18;;;;;;;12.60;2.40;;;15.50;99.90;;;;;;5018461;28;20183;-95
2023/08/02 05:06:44;;;;;;;7.80;2.20;;;15.50;99.90;;;;;;5021831;28;20179;-96
2023/08/02 05:09:11;;;;;;;5.47;2.13;;;15.50;99.90;;;;;;5043419;28;20233;-96
2023/08/02 05:11:39;;;;;;;4.85;2.28;;;15.50;99.90;;;;;;5042251;28;20170;-96
2023/08/02 05:14:26;;;;;;;4.60;1.80;;;15.60;99.90;;;;;;5041903;28;20178;-96
2023/08/02 05:16:52;;;;;;;9.50;2.40;;;15.70;99.90;;;;;;5044382;28;20189;-96
2023/08/02 05:19:18;;;;;;;7.65;2.47;;;15.70;99.90;;;;;;5043009;28;20177;-95
2023/08/02 05:21:44;;;;;;;6.13;2.00;;;15.80;99.90;;;;;;5058938;28;20311;-96
2023/08/02 05:24:10;;;;;;;3.88;1.90;;;15.80;99.90;;;;;;5041284;28;20608;-96
2023/08/02 05:26:35;;;;;;;4.13;1.80;;;15.90;99.90;;;;;;5041947;28;20182;-95
2023/08/02 05:29:01;;;;;;;7.03;2.22;;;15.90;99.90;;;;;;5059041;28;20188;-92
2023/08/02 05:31:27;;;;;;;6.20;2.20;;;16.00;99.90;;;;;;5058506;28;20256;-94
2023/08/02 05:33:56;;;;;;;4.60;1.95;;;16.10;99.90;;;;;;5050782;28;20281;-96
2023/08/02 05:36:22;;;;;;;6.45;1.83;;;16.20;99.90;;;;;;5039145;28;20220;-93
2023/08/02 05:38:48;;;;;;;8.07;2.00;;;16.30;99.90;;;;;;5038118;28;20186;-93
2023/08/02 05:41:13;;;;;;;6.13;2.25;;;16.50;99.90;;;;;;5038331;28;20205;-95
2023/08/02 05:43:44;;;;;;;4.82;2.05;;;16.60;99.90;;;;;;5037650;28;20186;-94
2023/08/02 05:46:10;;;;;;;5.72;2.35;;;16.70;99.90;;;;;;5039706;28;20186;-96
2023/08/02 05:48:36;;;;;;;8.52;2.10;;;16.90;99.90;;;;;;5039444;28;20178;-92
2023/08/02 05:51:02;;;;;;;7.95;2.08;;;16.90;99.90;;;;;;5038815;28;20519;-95
2023/08/02 05:53:33;;;;;;;5.68;2.47;;;16.90;99.90;;;;;;5056942;28;20181;-94
2023/08/02 05:55:59;;;;;;;5.53;1.95;;;17.00;99.90;;;;;;5040091;28;20177;-94
2023/08/02 05:58:25;;;;;;;5.57;2.22;;;17.00;99.90;;;;;;5038448;28;20255;-94
2023/08/02 06:00:50;;;;;;;5.63;1.98;;;17.00;99.90;;;;;;5037890;28;20217;-94
2023/08/02 06:03:16;;;;;;;3.42;2.00;;;17.00;99.90;;;;;;5019586;28;20955;-95
2023/08/02 06:05:42;;;;;;;4.85;1.77;;;17.10;99.90;;;;;;5036496;28;20182;-93
2023/08/02 06:08:07;;;;;;;5.95;1.83;;;17.10;99.90;;;;;;5018491;28;20684;-94
2023/08/02 06:10:33;;;;;;;8.20;1.90;;;17.20;99.90;;;;;;5019042;28;20265;-94
2023/08/02 06:12:59;;;;;;;6.03;1.63;;;17.20;99.90;;;;;;5018551;28;20228;-94
2023/08/02 06:15:36;;;;;;;5.80;1.98;;;17.20;99.90;;;;;;5029391;28;20205;-95
2023/08/02 06:18:02;;;;;;;3.15;1.80;;;17.10;99.90;;;;;;5035220;28;20516;-92
2023/08/02 06:20:28;;;;;;;4.30;1.80;;;17.10;99.90;;;;;;5042379;28;20198;-92
2023/08/02 06:22:53;;;;;;;3.53;1.60;;;17.20;99.90;;;;;;5056111;28;20232;-95
2023/08/02 06:25:27;;;;;;;4.93;1.40;;;17.20;99.90;;;;;;5038007;28;20237;-92
2023/08/02 06:27:52;;;;;;;4.43;1.98;;;17.20;99.90;;;;;;5037247;28;20173;-94
2023/08/02 06:30:18;;;;;;;8.68;2.00;;;17.30;99.90;;;;;;5037773;28;20174;-96
2023/08/02 06:32:44;;;;;;;4.63;1.80;;;17.30;99.90;;;;;;5038120;28;20190;-93
2023/08/02 06:35:18;;;;;;;6.00;1.85;;;17.40;99.90;;;;;;5037909;28;20174;-93
2023/08/02 06:37:43;;;;;;;5.53;1.50;;;17.40;99.90;;;;;;5037311;28;20493;-93
2023/08/02 06:40:10;;;;;;;2.70;1.58;;;17.40;99.90;;;;;;5037508;28;20252;-91
2023/08/02 06:42:36;;;;;;;4.10;1.50;;;17.50;99.90;;;;;;5039769;28;20624;-95
2023/08/02 06:45:04;;;;;;;4.85;1.65;;;17.60;99.90;;;;;;5041913;28;20178;-92
2023/08/02 06:47:30;;;;;;;6.45;2.08;;;17.60;99.90;;;;;;5042570;28;20173;-95
2023/08/02 06:49:55;;;;;;;4.78;1.90;;;17.70;99.90;;;;;;5041876;28;20181;-95
2023/08/02 06:52:21;;;;;;;4.22;1.67;;;17.90;99.90;;;;;;5058913;28;20181;-92
2023/08/02 06:55:04;;;;;;;4.95;1.98;;;18.00;99.90;;;;;;5041079;28;20178;-93
2023/08/02 06:57:31;;;;;;;4.22;1.77;;;18.10;99.90;;;;;;5041553;28;20181;-95
2023/08/02 06:59:57;;;;;;;7.82;2.20;;;18.30;99.90;;;;;;5041236;28;20178;-93
2023/08/02 07:02:22;;;;;;;4.05;1.92;;;18.20;99.90;;;;;;5040970;28;20273;-94
2023/08/02 07:04:56;;;;;;;7.72;2.30;;;18.30;99.90;;;;;;5042114;28;20312;-94
2023/08/02 07:07:22;;;;;;;6.60;2.05;;;18.40;99.90;;;;;;5040957;28;20236;-94
2023/08/02 07:09:49;;;;;;;8.02;2.17;;;18.50;99.90;;;;;;5041742;28;20181;-94
2023/08/02 07:12:14;;;;;;;9.00;2.00;;;18.70;99.90;;;;;;5041694;28;20181;-90
2023/08/02 07:14:42;;;;;;;3.67;1.67;;;18.80;99.90;;;;;;5040564;28;20204;-95
2023/08/02 07:17:08;;;;;;;5.20;1.90;;;18.90;99.90;;;;;;5040842;28;20317;-96
2023/08/02 07:19:34;;;;;;;4.47;1.70;;;19.00;99.90;;;;;;5041658;28;20205;-90
2023/08/02 07:22:00;;;;;;;5.68;1.70;;;19.00;99.90;;;;;;5041276;28;20229;-91
2023/08/02 07:24:36;;;;;;;5.78;1.70;;;19.00;99.90;;;;;;5041563;28;20173;-90
2023/08/02 07:27:02;;;;;;;5.18;1.40;;;18.90;99.90;;;;;;5059326;28;20166;-92
2023/08/02 07:29:27;;;;;;;3.15;1.10;;;18.80;99.90;;;;;;5059522;28;20215;-96
2023/08/02 07:31:53;;;;;;;3.97;1.33;;;18.90;99.90;;;;;;5040904;28;20197;-96
2023/08/02 07:34:19;;;;;;;4.82;1.42;;;19.00;99.90;;;;;;5042426;28;20182;-95
2023/08/02 07:36:44;;;;;;;3.78;1.40;;;19.00;99.90;;;;;;5043822;28;20174;-93
2023/08/02 07:39:10;;;;;;;3.22;1.27;;;19.10;99.90;;;;;;5041886;28;20272;-96
2023/08/02 07:41:36;;;;;;;8.70;1.42;;;19.30;99.90;;;;;;5041341;28;20210;-93
2023/08/02 07:44:01;;;;;;;5.40;1.33;;;19.40;99.90;;;;;;5044328;28;20176;-93
2023/08/02 07:46:28;;;;;;;2.35;1.13;;;19.40;99.90;;;;;;5040535;28;20178;-94
2023/08/02 07:48:55;;;;;;;3.90;1.58;;;19.50;99.90;;;;;;5041138;28;20236;-94
2023/08/02 07:51:20;;;;;;;4.85;1.35;;;19.60;99.90;;;;;;5027743;28;20352;-94
2023/08/02 07:53:48;;;;;;;3.10;1.60;;;19.90;99.90;;;;;;5020728;28;20182;-94
2023/08/02 07:56:14;;;;;;;3.45;1.23;;;20.10;99.90;;;;;;5022264;28;20182;-93
2023/08/02 07:58:39;;;;;;;2.95;1.23;;;20.10;99.90;;;;;;5021873;28;20178;-95
2023/08/02 08:01:07;;;;;;;5.18;1.35;;;20.10;99.90;;;;;;5021182;28;20210;-93
2023/08/02 08:03:33;;;;;;;3.00;1.27;;;20.10;99.90;;;;;;5022065;28;20643;-95
2023/08/02 08:05:58;;;;;;;4.75;1.25;;;19.90;99.90;;;;;;5020926;28;20178;-94
2023/08/02 08:08:24;;;;;;;4.85;1.25;;;19.90;99.90;;;;;;5022025;28;20253;-95
2023/08/02 08:10:51;;;;;;;3.25;1.27;;;19.80;99.90;;;;;;5022288;28;20232;-94
2023/08/02 08:13:18;;;;;;;5.05;1.10;;;19.70;99.90;;;;;;5021564;28;20205;-96
2023/08/02 08:15:48;;;;;;;2.63;1.10;;;19.60;99.90;;;;;;5021268;28;20189;-95
2023/08/02 08:18:14;;;;;;;4.15;1.65;;;19.50;99.90;;;;;;5020850;28;20173;-95
2023/08/02 08:20:40;;;;;;;2.97;1.42;;;19.40;99.90;;;;;;5038539;28;20303;-96
2023/08/02 08:23:05;;;;;;;3.33;1.02;;;19.30;99.90;;;;;;5062841;28;20179;-95
2023/08/02 08:25:32;;;;;;;3.50;1.38;;;19.30;99.90;;;;;;5060926;28;20188;-95
2023/08/02 08:27:58;;;;;;;4.53;1.17;;;19.30;99.90;;;;;;5060360;28;20490;-96
2023/08/02 08:30:23;;;;;;;5.40;1.25;;;19.30;99.90;;;;;;5060116;28;20200;-94
2023/08/02 08:32:50;;;;;;;3.13;1.13;;;19.20;99.90;;;;;;5061204;28;20185;-96
2023/08/02 08:35:23;;;;;;;2.38;1.33;;;19.20;99.90;;;;;;5059361;28;20177;-92
2023/08/02 08:37:51;;;;;;;2.13;1.17;;;19.40;99.90;;;;;;5059473;28;20182;-96
2023/08/02 08:40:18;;;;;;;4.88;1.40;;;19.50;99.90;;;;;;5078042;28;20197;-96
2023/08/02 08:42:53;;;;;;;3.88;1.30;;;19.50;99.90;;;;;;5060206;28;20307;-93
2023/08/02 08:45:20;;;;;;;2.15;1.02;;;19.60;99.90;;;;;;5060593;28;20604;-95
2023/08/02 08:47:47;;;;;;;4.32;1.05;;;19.50;99.90;;;;;;5061318;28;20222;-96
2023/08/02 08:50:13;;;;;;;2.65;1.15;;;19.40;99.90;;;;;;5055465;28;20181;-95
2023/08/02 08:52:40;;;;;;;2.83;1.40;;;19.40;99.90;;;;;;5041700;28;20174;-96
2023/08/02 08:55:12;;;;;;;2.40;1.30;;;19.40;99.90;;;;;;5059016;28;20224;-92
2023/08/02 08:57:50;;;;;;;2.65;1.30;;;19.50;99.90;;;;;;5040805;28;20184;-95
2023/08/02 09:00:16;;;;;;;2.20;0.95;;;19.70;99.90;;;;;;5041071;28;20205;-94
2023/08/02 09:02:43;;;;;;;2.90;1.05;;;19.80;99.90;;;;;;5040981;28;20178;-95
2023/08/02 09:05:10;;;;;;;1.75;1.08;;;19.80;99.90;;;;;;5060749;28;20180;-96
2023/08/02 09:07:36;;;;;;;3.10;1.40;;;19.80;99.90;;;;;;5028699;28;20282;-96
2023/08/02 09:10:01;;;;;;;2.00;1.10;;;19.90;99.90;;;;;;5017877;28;20563;-94
2023/08/02 09:12:27;;;;;;;5.10;1.33;;;20.00;99.90;;;;;;5017445;28;20202;-96
2023/08/02 09:15:08;;;;;;;2.92;1.23;;;19.90;99.90;;;;;;5014129;28;20255;-96
2023/08/02 09:17:52;;;;;;;1.88;1.08;;;19.90;99.90;;;;;;5016553;28;20176;-95
2023/08/02 09:20:22;;;;;;;1.55;1.10;;;19.80;99.90;;;;;;5015225;28;20200;-96
2023/08/02 09:22:48;;;;;;;4.55;1.40;;;19.80;99.90;;;;;;5017142;28;20271;-96
2023/08/02 09:25:28;;;;;;;4.28;1.27;;;19.70;99.90;;;;;;5016654;28;20590;-95
2023/08/02 09:28:00;;;;;;;2.80;1.10;;;19.80;99.90;;;;;;4999567;28;20203;-96
2023/08/02 09:30:32;;;;;;;2.60;1.10;;;19.90;99.90;;;;;;5017415;28;20172;-96
2023/08/02 09:33:05;;;;;;;2.83;1.10;;;20.10;99.90;;;;;;5014985;28;20310;-94
2023/08/02 09:35:49;;;;;;;2.75;1.40;;;20.40;99.90;;;;;;5016064;28;20172;-95
2023/08/02 09:38:16;;;;;;;4.03;1.50;;;20.60;99.90;;;;;;4999137;28;20179;-95
2023/08/02 09:40:47;;;;;;;3.97;1.63;;;20.70;99.90;;;;;;5015259;28;20267;-94
2023/08/02 09:43:17;;;;;;;1.90;1.30;;;20.70;99.90;;;;;;5014330;28;20174;-95
2023/08/02 09:45:43;;;;;;;1.73;1.30;;;20.60;99.90;;;;;;5017719;28;20187;-95
2023/08/02 09:48:12;;;;;;;3.72;1.10;;;20.50;99.90;;;;;;5019905;28;20183;-96
2023/08/02 09:51:02;;;;;;;1.83;1.20;;;20.50;99.90;;;;;;5018645;28;20176;-96
2023/08/02 09:53:28;;;;;;;2.60;1.25;;;20.40;99.90;;;;;;5016908;28;20229;-95
2023/08/02 09:55:58;;;;;;;2.67;1.45;;;20.40;99.90;;;;;;5018054;28;20610;-96
2023/08/02 09:58:38;;;;;;;2.55;1.20;;;20.30;99.90;;;;;;5019263;28;20175;-96
2023/08/02 10:01:04;;;;;;;3.03;1.40;;;20.20;99.90;;;;;;5018046;28;20293;-95
2023/08/02 10:03:32;;;;;;;3.70;1.30;;;20.10;99.90;;;;;;5016963;28;20180;-93
2023/08/02 10:06:02;;;;;;;2.42;1.30;;;19.90;99.90;;;;;;5016279;28;20266;-95
2023/08/02 10:08:31;;;;;;;4.60;1.42;;;19.80;99.90;;;;;;5047612;28;20798;-94
2023/08/02 10:11:00;;;;;;;3.25;1.38;;;19.70;99.90;;;;;;5054776;28;20177;-92
2023/08/02 10:13:30;;;;;;;3.95;1.50;;;19.60;99.90;;;;;;5038379;28;20493;-95
2023/08/02 10:15:57;;;;;;;2.17;1.30;;;19.50;99.90;;;;;;5040713;28;20893;-96
2023/08/02 10:18:28;;;;;;;3.58;1.52;;;19.50;99.90;;;;;;5043459;28;20182;-96
2023/08/02 10:20:55;;;;;;;4.45;1.67;;;19.50;99.90;;;;;;5043901;28;20213;-96
2023/08/02 10:23:21;;;;;;;4.07;1.65;;;19.40;99.90;;;;;;5045160;28;20824;-95
2023/08/02 10:25:49;;;;;;;3.65;1.60;;;19.40;99.90;;;;;;5050423;28;20269;-96
2023/08/02 10:28:19;;;;;;;3.90;1.38;;;19.40;99.90;;;;;;5050824;28;20174;-96
2023/08/02 10:30:45;;;;;;;2.78;1.67;;;19.40;99.90;;;;;;5046602;28;20196;-96
2023/08/02 10:33:18;;;;;;;3.42;1.77;;;19.50;99.90;;;;;;5049351;28;20166;-95
2023/08/02 10:36:02;;;;;;;3.63;2.13;;;19.70;99.90;;;;;;5065363;28;20201;-94
2023/08/02 10:38:52;;;;;;;3.80;1.90;;;19.90;99.90;;;;;;5051742;28;20174;-96
2023/08/02 10:41:26;;;;;;;5.00;1.98;;;20.00;99.90;;;;;;5047871;28;20307;-96
2023/08/02 10:43:55;;;;;;;8.07;2.28;;;20.00;99.90;;;;;;5045956;28;20248;-94
2023/08/02 10:46:26;;;;;;;3.22;1.95;;;20.10;99.90;;;;;;5063855;28;20185;-95
2023/08/02 10:49:11;;;;;;;4.25;2.25;;;20.10;99.90;;;;;;5064954;28;20200;-95
2023/08/02 10:51:37;;;;;;;6.18;2.10;;;20.00;99.90;;;;;;5069773;28;20176;-96
2023/08/02 10:54:18;;;;;;;3.33;2.03;;;20.00;99.90;;;;;;5067937;28;20196;-96
2023/08/02 10:57:18;;;;;;;3.65;2.25;;;20.00;99.90;;;;;;5065214;28;20179;-91
2023/08/02 10:59:44;;;;;;;4.32;1.63;;;20.00;99.90;;;;;;5062200;28;20299;-92
2023/08/02 11:02:12;;;;;;;3.00;1.90;;;19.90;99.90;;;;;;5063056;28;20228;-93
2023/08/02 11:04:44;;;;;;;5.95;2.17;;;19.90;99.90;;;;;;5063745;28;20180;-96
2023/08/02 11:07:21;;;;;;;7.07;2.28;;;19.90;99.90;;;;;;5055857;28;20321;-96
2023/08/02 11:09:51;;;;;;;4.50;1.92;;;19.90;99.90;;;;;;5025791;28;20187;-96
2023/08/02 11:12:19;;;;;;;4.25;2.22;;;19.80;99.90;;;;;;5042724;28;20183;-96
2023/08/02 11:14:50;;;;;;;5.90;2.38;;;19.70;99.90;;;;;;5043995;28;20185;-96
2023/08/02 11:17:53;;;;;;;3.33;1.90;;;19.60;99.90;;;;;;5043437;28;20167;-96
2023/08/02 11:20:24;;;;;;;2.33;1.80;;;19.50;99.90;;;;;;5039802;28;20206;-93
2023/08/02 11:22:53;;;;;;;3.30;2.20;;;19.50;99.90;;;;;;5040423;28;20193;-94
2023/08/02 11:25:20;;;;;;;8.32;1.88;;;19.40;99.90;;;;;;5041766;28;20178;-95
2023/08/02 11:28:04;;;;;;;2.22;1.58;;;19.40;99.90;;;;;;5040801;28;20269;-93
2023/08/02 11:30:29;;;;;;;3.45;2.17;;;19.30;99.90;;;;;;5039804;28;20162;-95
2023/08/02 11:32:55;;;;;;;3.20;2.00;;;19.30;99.90;;;;;;5040236;28;20250;-95
2023/08/02 11:35:21;;;;;;;6.32;2.70;;;19.20;99.90;;;;;;5041429;28;20612;-95
2023/08/02 11:37:48;;;;;;;5.35;2.40;;;19.20;99.90;;;;;;5042046;28;20183;-94
2023/08/02 11:40:14;;;;;;;3.13;2.00;;;19.10;99.90;;;;;;5040803;28;20594;-96
2023/08/02 11:42:53;;;;;;;4.05;2.20;;;18.90;99.90;;;;;;5044240;28;20206;-96
2023/08/02 11:45:35;;;;;;;7.57;2.55;;;18.80;99.90;;;;;;5042155;28;20170;-96
2023/08/02 11:48:02;;;;;;;3.42;2.30;;;18.80;99.90;;;;;;5048296;28;20601;-95
2023/08/02 11:50:31;;;;;;;3.75;2.30;;;18.80;99.90;;;;;;5042517;28;20579;-96
2023/08/02 11:53:08;;;;;;;3.55;2.30;;;18.70;99.90;;;;;;5045554;28;20183;-96
2023/08/02 11:55:38;;;;;;;3.80;2.45;;;18.70;99.90;;;;;;5044149;28;20178;-96
2023/08/02 11:58:06;;;;;;;5.25;2.40;;;18.60;99.90;;;;;;5046186;28;20178;-96
2023/08/02 12:00:36;;;;;;;5.20;2.55;;;18.60;99.90;;;;;;5049518;28;20205;-96
2023/08/02 12:03:13;;;;;;;6.20;2.83;;;18.70;99.90;;;;;;5045714;28;20155;-96
2023/08/02 12:05:41;;;;;;;3.97;2.63;;;18.70;99.90;;;;;;5052724;22;20240;-95
2023/08/02 12:08:14;;;;;;;5.90;2.50;;;18.70;99.90;;;;;;5044614;28;20246;-96
2023/08/02 12:10:42;;;;;;;3.13;2.38;;;18.70;99.90;;;;;;5043323;28;20629;-94
2023/08/02 12:13:14;;;;;;;5.32;2.60;;;18.80;99.90;;;;;;5044063;28;20178;-96
2023/08/02 12:16:00;;;;;;;4.13;2.35;;;18.80;99.90;;;;;;5042051;28;20182;-96
2023/08/02 12:18:27;;;;;;;4.20;2.33;;;18.80;99.90;;;;;;5040562;28;20171;-96
2023/08/02 12:20:52;;;;;;;4.15;2.50;;;18.80;99.90;;;;;;5041888;28;20992;-95
2023/08/02 12:23:35;;;;;;;2.92;2.10;;;18.70;99.90;;;;;;5037406;28;20175;-96
2023/08/02 12:26:03;;;;;;;5.88;2.67;;;18.70;99.90;;;;;;5037626;28;20175;-96
2023/08/02 12:28:47;;;;;;;4.32;2.45;;;18.60;99.90;;;;;;5038718;28;20183;-94
2023/08/02 12:31:14;;;;;;;3.80;2.40;;;18.60;99.90;;;;;;5038523;28;20185;-94
2023/08/02 12:33:40;;;;;;;4.72;2.00;;;18.60;99.90;;;;;;5038034;28;20628;-96
2023/08/02 12:36:07;;;;;;;2.88;1.88;;;18.60;99.90;;;;;;5038715;28;20182;-96
2023/08/02 12:38:35;;;;;;;5.13;2.10;;;18.50;99.90;;;;;;5037310;28;20209;-94
2023/08/02 12:41:04;;;;;;;3.65;2.25;;;18.40;99.90;;;;;;5039306;28;20646;-94
2023/08/02 12:43:30;;;;;;;6.95;2.28;;;18.30;99.90;;;;;;5041666;28;20230;-96
2023/08/02 12:45:56;;;;;;;3.60;2.22;;;18.40;99.90;;;;;;5040835;28;20280;-96
2023/08/02 12:48:29;;;;;;;3.90;2.30;;;18.40;99.90;;;;;;5037072;28;20175;-95
2023/08/02 12:50:54;;;;;;;6.03;2.40;;;18.30;99.90;;;;;;5038079;28;20273;-91
2023/08/02 12:53:20;;;;;;;3.17;1.90;;;18.30;99.90;;;;;;5037270;28;20198;-93